sensor_id;sensor_type;location;lat;lon;timestamp;pressure;altitude;pressure_sealevel;temperature;humidity
68758;BME280;55747;51.998;4.466;2022-11-11T00:01:39;56651.50;;;-144.48;88.04
68758;BME280;55747;51.998;4.466;2022-11-11T00:04:04;56655.66;;;-144.48;88.32
68758;BME280;55747;51.998;4.466;2022-11-11T00:06:29;56657.72;;;-144.48;88.54
68758;BME280;55747;51.998;4.466;2022-11-11T00:08:55;56684.59;;;-144.48;88.64
68758;BME280;55747;51.998;4.466;2022-11-11T00:11:20;56628.78;;;-144.48;88.76
68758;BME280;55747;51.998;4.466;2022-11-11T00:13:45;56659.78;;;-144.48;88.73
68758;BME280;55747;51.998;4.466;2022-11-11T00:16:12;56626.72;;;-144.48;88.66
68758;BME280;55747;51.998;4.466;2022-11-11T00:18:38;56651.50;;;-144.48;88.62
68758;BME280;55747;51.998;4.466;2022-11-11T00:21:22;56645.31;;;-144.48;88.77
68758;BME280;55747;51.998;4.466;2022-11-11T00:24:22;56668.06;;;-144.48;88.77
68758;BME280;55747;51.998;4.466;2022-11-11T00:27:08;56632.91;;;-144.48;88.80
68758;BME280;55747;51.998;4.466;2022-11-11T00:29:33;56659.78;;;-144.48;88.97
68758;BME280;55747;51.998;4.466;2022-11-11T00:31:59;56668.06;;;-144.48;88.99
68758;BME280;55747;51.998;4.466;2022-11-11T00:34:43;56632.91;;;-144.48;89.15
68758;BME280;55747;51.998;4.466;2022-11-11T00:37:28;56657.72;;;-144.48;89.35
68758;BME280;55747;51.998;4.466;2022-11-11T00:39:53;56666.00;;;-144.48;89.31
68758;BME280;55747;51.998;4.466;2022-11-11T00:42:19;56663.91;;;-144.48;89.67
68758;BME280;55747;51.998;4.466;2022-11-11T00:44:44;56653.59;;;-144.48;89.88
68758;BME280;55747;51.998;4.466;2022-11-11T00:47:09;56645.31;;;-144.48;89.60
68758;BME280;55747;51.998;4.466;2022-11-11T00:49:53;56666.00;;;-144.48;89.62
68758;BME280;55747;51.998;4.466;2022-11-11T00:52:37;56643.25;;;-144.48;89.76
68758;BME280;55747;51.998;4.466;2022-11-11T00:55:03;56657.72;;;-144.48;89.66
68758;BME280;55747;51.998;4.466;2022-11-11T00:57:28;56637.03;;;-144.48;89.67
68758;BME280;55747;51.998;4.466;2022-11-11T00:59:53;56670.13;;;-144.48;89.94
68758;BME280;55747;51.998;4.466;2022-11-11T01:02:19;56649.44;;;-144.48;89.90
68758;BME280;55747;51.998;4.466;2022-11-11T01:04:44;56663.91;;;-144.48;89.84
68758;BME280;55747;51.998;4.466;2022-11-11T01:07:09;56651.50;;;-144.48;89.88
68758;BME280;55747;51.998;4.466;2022-11-11T01:09:34;56661.84;;;-144.48;89.80
68758;BME280;55747;51.998;4.466;2022-11-11T01:12:00;56692.88;;;-144.48;89.63
68758;BME280;55747;51.998;4.466;2022-11-11T01:14:25;56663.91;;;-144.48;89.64
68758;BME280;55747;51.998;4.466;2022-11-11T01:16:50;56649.44;;;-144.48;89.52
68758;BME280;55747;51.998;4.466;2022-11-11T01:19:15;56655.66;;;-144.48;89.74
68758;BME280;55747;51.998;4.466;2022-11-11T01:21:41;56674.25;;;-144.48;89.55
68758;BME280;55747;51.998;4.466;2022-11-11T01:24:06;56645.31;;;-144.48;89.75
68758;BME280;55747;51.998;4.466;2022-11-11T01:26:31;56657.72;;;-144.48;89.98
68758;BME280;55747;51.998;4.466;2022-11-11T01:28:57;56686.66;;;-144.48;90.16
68758;BME280;55747;51.998;4.466;2022-11-11T01:31:24;56637.03;;;-144.48;90.14
68758;BME280;55747;51.998;4.466;2022-11-11T01:33:50;56653.59;;;-144.48;90.39
68758;BME280;55747;51.998;4.466;2022-11-11T01:36:17;56684.59;;;-144.48;90.67
68758;BME280;55747;51.998;4.466;2022-11-11T01:38:45;56670.13;;;-144.48;90.65
68758;BME280;55747;51.998;4.466;2022-11-11T01:41:14;56666.00;;;-144.48;90.69
68758;BME280;55747;51.998;4.466;2022-11-11T01:46:40;56659.78;;;-144.48;91.17
68758;BME280;55747;51.998;4.466;2022-11-11T01:54:35;56666.00;;;-144.48;91.13
68758;BME280;55747;51.998;4.466;2022-11-11T01:57:06;56701.13;;;-144.48;90.93
68758;BME280;55747;51.998;4.466;2022-11-11T01:59:36;56643.25;;;-144.48;90.92
68758;BME280;55747;51.998;4.466;2022-11-11T02:02:10;56643.25;;;-144.48;91.03
68758;BME280;55747;51.998;4.466;2022-11-11T02:04:36;56668.06;;;-144.48;91.12
68758;BME280;55747;51.998;4.466;2022-11-11T02:07:21;56630.84;;;-144.48;91.31
68758;BME280;55747;51.998;4.466;2022-11-11T02:09:47;56661.84;;;-144.48;91.10
68758;BME280;55747;51.998;4.466;2022-11-11T02:12:14;56630.84;;;-144.48;91.36
68758;BME280;55747;51.998;4.466;2022-11-11T02:15:09;56657.72;;;-144.48;91.36
68758;BME280;55747;51.998;4.466;2022-11-11T02:17:35;56645.31;;;-144.48;91.26
68758;BME280;55747;51.998;4.466;2022-11-11T02:20:02;56678.41;;;-144.48;91.48
68758;BME280;55747;51.998;4.466;2022-11-11T02:22:43;56657.72;;;-144.48;91.50
68758;BME280;55747;51.998;4.466;2022-11-11T02:25:14;56661.84;;;-144.48;91.65
68758;BME280;55747;51.998;4.466;2022-11-11T02:27:44;56661.84;;;-144.48;91.75
68758;BME280;55747;51.998;4.466;2022-11-11T02:30:10;56655.66;;;-144.48;91.96
68758;BME280;55747;51.998;4.466;2022-11-11T02:32:43;56647.38;;;-144.48;92.16
68758;BME280;55747;51.998;4.466;2022-11-11T02:35:33;56628.78;;;-144.48;92.21
68758;BME280;55747;51.998;4.466;2022-11-11T02:38:00;56655.66;;;-144.48;92.39
68758;BME280;55747;51.998;4.466;2022-11-11T02:43:01;56647.38;;;-144.48;92.41
68758;BME280;55747;51.998;4.466;2022-11-11T02:45:26;56682.53;;;-144.48;92.49
68758;BME280;55747;51.998;4.466;2022-11-11T02:47:51;56674.25;;;-144.48;92.55
68758;BME280;55747;51.998;4.466;2022-11-11T02:50:17;56663.91;;;-144.48;92.83
68758;BME280;55747;51.998;4.466;2022-11-11T02:52:42;56663.91;;;-144.48;92.73
68758;BME280;55747;51.998;4.466;2022-11-11T02:55:08;56670.13;;;-144.48;92.91
68758;BME280;55747;51.998;4.466;2022-11-11T02:57:34;56661.84;;;-144.48;92.87
68758;BME280;55747;51.998;4.466;2022-11-11T03:00:01;56672.19;;;-144.48;93.05
68758;BME280;55747;51.998;4.466;2022-11-11T03:02:27;56663.91;;;-144.48;93.20
68758;BME280;55747;51.998;4.466;2022-11-11T03:04:53;56663.91;;;-144.48;93.29
68758;BME280;55747;51.998;4.466;2022-11-11T03:07:20;56655.66;;;-144.48;93.33
68758;BME280;55747;51.998;4.466;2022-11-11T03:09:45;56694.94;;;-144.48;93.31
68758;BME280;55747;51.998;4.466;2022-11-11T03:12:10;56674.25;;;-144.48;93.38
68758;BME280;55747;51.998;4.466;2022-11-11T03:14:36;56670.13;;;-144.48;93.38
68758;BME280;55747;51.998;4.466;2022-11-11T03:17:01;56676.31;;;-144.48;93.46
68758;BME280;55747;51.998;4.466;2022-11-11T03:19:45;56694.94;;;-144.48;93.38
68758;BME280;55747;51.998;4.466;2022-11-11T03:22:10;56655.66;;;-144.48;93.37
68758;BME280;55747;51.998;4.466;2022-11-11T03:24:35;56676.31;;;-144.48;93.33
68758;BME280;55747;51.998;4.466;2022-11-11T03:27:19;56678.41;;;-144.48;93.22
68758;BME280;55747;51.998;4.466;2022-11-11T03:29:45;56690.81;;;-144.48;93.40
68758;BME280;55747;51.998;4.466;2022-11-11T03:32:10;56707.34;;;-144.48;93.43
68758;BME280;55747;51.998;4.466;2022-11-11T03:34:35;56637.03;;;-144.48;93.42
68758;BME280;55747;51.998;4.466;2022-11-11T03:37:01;56670.13;;;-144.48;93.37
68758;BME280;55747;51.998;4.466;2022-11-11T03:39:45;56655.66;;;-144.48;93.48
68758;BME280;55747;51.998;4.466;2022-11-11T03:42:10;56692.88;;;-144.48;93.34
68758;BME280;55747;51.998;4.466;2022-11-11T03:44:35;56676.31;;;-144.48;93.27
68758;BME280;55747;51.998;4.466;2022-11-11T03:47:01;56692.88;;;-144.48;93.36
68758;BME280;55747;51.998;4.466;2022-11-11T03:49:26;56686.66;;;-144.48;93.49
68758;BME280;55747;51.998;4.466;2022-11-11T03:51:51;56682.53;;;-144.48;93.47
68758;BME280;55747;51.998;4.466;2022-11-11T03:54:16;56657.72;;;-144.48;93.64
68758;BME280;55747;51.998;4.466;2022-11-11T03:56:42;56655.66;;;-144.48;93.67
68758;BME280;55747;51.998;4.466;2022-11-11T03:59:07;56649.44;;;-144.48;93.84
68758;BME280;55747;51.998;4.466;2022-11-11T04:01:32;56657.72;;;-144.48;93.94
68758;BME280;55747;51.998;4.466;2022-11-11T04:04:16;56690.81;;;-144.48;93.91
68758;BME280;55747;51.998;4.466;2022-11-11T04:07:00;56678.41;;;-144.48;93.85
68758;BME280;55747;51.998;4.466;2022-11-11T04:10:04;56682.53;;;-144.48;93.86
68758;BME280;55747;51.998;4.466;2022-11-11T04:12:48;56659.78;;;-144.48;93.97
68758;BME280;55747;51.998;4.466;2022-11-11T04:15:36;56674.25;;;-144.48;94.19
68758;BME280;55747;51.998;4.466;2022-11-11T04:18:20;56666.00;;;-144.48;94.03
68758;BME280;55747;51.998;4.466;2022-11-11T04:21:06;56651.50;;;-144.48;94.07
68758;BME280;55747;51.998;4.466;2022-11-11T04:23:50;56670.13;;;-144.48;93.97
68758;BME280;55747;51.998;4.466;2022-11-11T04:26:15;56655.66;;;-144.48;93.94
68758;BME280;55747;51.998;4.466;2022-11-11T04:28:40;56692.88;;;-144.48;94.13
68758;BME280;55747;51.998;4.466;2022-11-11T04:31:24;56651.50;;;-144.48;93.83
68758;BME280;55747;51.998;4.466;2022-11-11T04:33:50;56684.59;;;-144.48;94.16
68758;BME280;55747;51.998;4.466;2022-11-11T04:36:15;56643.25;;;-144.48;94.07
68758;BME280;55747;51.998;4.466;2022-11-11T04:38:40;56676.31;;;-144.48;94.05
68758;BME280;55747;51.998;4.466;2022-11-11T04:41:24;56649.44;;;-144.48;94.16
68758;BME280;55747;51.998;4.466;2022-11-11T04:43:49;56736.28;;;-144.48;94.21
68758;BME280;55747;51.998;4.466;2022-11-11T04:46:33;56643.25;;;-144.48;94.02
68758;BME280;55747;51.998;4.466;2022-11-11T04:48:58;56682.53;;;-144.48;94.30
68758;BME280;55747;51.998;4.466;2022-11-11T04:51:24;56630.84;;;-144.48;94.34
68758;BME280;55747;51.998;4.466;2022-11-11T04:54:09;56709.41;;;-144.48;94.18
68758;BME280;55747;51.998;4.466;2022-11-11T04:56:34;56701.13;;;-144.48;94.14
68758;BME280;55747;51.998;4.466;2022-11-11T04:59:11;56697.00;;;-144.48;94.12
68758;BME280;55747;51.998;4.466;2022-11-11T05:01:44;56686.66;;;-144.48;94.17
68758;BME280;55747;51.998;4.466;2022-11-11T05:04:29;56653.59;;;-144.48;94.15
68758;BME280;55747;51.998;4.466;2022-11-11T05:06:54;56694.94;;;-144.48;94.21
68758;BME280;55747;51.998;4.466;2022-11-11T05:09:38;56651.50;;;-144.48;94.17
68758;BME280;55747;51.998;4.466;2022-11-11T05:12:04;56678.41;;;-144.48;94.34
68758;BME280;55747;51.998;4.466;2022-11-11T05:14:29;56661.84;;;-144.48;94.49
68758;BME280;55747;51.998;4.466;2022-11-11T05:17:13;56680.47;;;-144.48;94.39
68758;BME280;55747;51.998;4.466;2022-11-11T05:19:57;56684.59;;;-144.48;94.37
68758;BME280;55747;51.998;4.466;2022-11-11T05:22:42;56682.53;;;-144.48;94.34
68758;BME280;55747;51.998;4.466;2022-11-11T05:25:09;56682.53;;;-144.48;94.28
68758;BME280;55747;51.998;4.466;2022-11-11T05:27:51;56701.13;;;-144.48;94.15
68758;BME280;55747;51.998;4.466;2022-11-11T05:30:18;56694.94;;;-144.48;94.53
68758;BME280;55747;51.998;4.466;2022-11-11T05:32:44;56682.53;;;-144.48;94.39
68758;BME280;55747;51.998;4.466;2022-11-11T05:35:10;56659.78;;;-144.48;94.49
68758;BME280;55747;51.998;4.466;2022-11-11T05:37:38;56715.59;;;-144.48;94.43
68758;BME280;55747;51.998;4.466;2022-11-11T05:40:04;56653.59;;;-144.48;94.50
68758;BME280;55747;51.998;4.466;2022-11-11T05:42:30;56641.19;;;-144.48;94.34
68758;BME280;55747;51.998;4.466;2022-11-11T05:44:58;56682.53;;;-144.48;94.54
68758;BME280;55747;51.998;4.466;2022-11-11T05:47:24;56680.47;;;-144.48;94.55
68758;BME280;55747;51.998;4.466;2022-11-11T05:49:49;56668.06;;;-144.48;94.53
68758;BME280;55747;51.998;4.466;2022-11-11T05:52:16;56680.47;;;-144.48;94.55
68758;BME280;55747;51.998;4.466;2022-11-11T05:54:42;56688.72;;;-144.48;94.55
68758;BME280;55747;51.998;4.466;2022-11-11T05:57:08;56688.72;;;-144.48;94.51
68758;BME280;55747;51.998;4.466;2022-11-11T05:59:33;56715.59;;;-144.48;94.36
68758;BME280;55747;51.998;4.466;2022-11-11T06:01:59;56740.41;;;-144.48;94.43
68758;BME280;55747;51.998;4.466;2022-11-11T06:04:24;56651.50;;;-144.48;94.46
68758;BME280;55747;51.998;4.466;2022-11-11T06:06:50;56676.31;;;-144.48;94.39
68758;BME280;55747;51.998;4.466;2022-11-11T06:09:16;56666.00;;;-144.48;94.29
68758;BME280;55747;51.998;4.466;2022-11-11T06:11:41;56699.06;;;-144.48;94.09
68758;BME280;55747;51.998;4.466;2022-11-11T06:14:07;56709.41;;;-144.48;94.12
68758;BME280;55747;51.998;4.466;2022-11-11T06:16:32;56674.25;;;-144.48;93.96
68758;BME280;55747;51.998;4.466;2022-11-11T06:19:00;56668.06;;;-144.48;93.91
68758;BME280;55747;51.998;4.466;2022-11-11T06:21:28;56680.47;;;-144.48;93.86
68758;BME280;55747;51.998;4.466;2022-11-11T06:23:53;56694.94;;;-144.48;93.98
68758;BME280;55747;51.998;4.466;2022-11-11T06:26:18;56707.34;;;-144.48;94.03
68758;BME280;55747;51.998;4.466;2022-11-11T06:28:45;56715.59;;;-144.48;93.73
68758;BME280;55747;51.998;4.466;2022-11-11T06:31:17;56686.66;;;-144.48;93.76
68758;BME280;55747;51.998;4.466;2022-11-11T06:33:43;56674.25;;;-144.48;93.90
68758;BME280;55747;51.998;4.466;2022-11-11T06:36:10;56686.66;;;-144.48;93.89
68758;BME280;55747;51.998;4.466;2022-11-11T06:38:37;56655.66;;;-144.48;93.83
68758;BME280;55747;51.998;4.466;2022-11-11T06:41:02;56699.06;;;-144.48;93.87
68758;BME280;55747;51.998;4.466;2022-11-11T06:43:28;56688.72;;;-144.48;93.92
68758;BME280;55747;51.998;4.466;2022-11-11T06:45:54;56661.84;;;-144.48;93.89
68758;BME280;55747;51.998;4.466;2022-11-11T06:48:21;56684.59;;;-144.48;93.90
68758;BME280;55747;51.998;4.466;2022-11-11T06:50:47;56678.41;;;-144.48;93.85
68758;BME280;55747;51.998;4.466;2022-11-11T06:53:14;56682.53;;;-144.48;93.89
68758;BME280;55747;51.998;4.466;2022-11-11T06:55:40;56655.66;;;-144.48;94.00
68758;BME280;55747;51.998;4.466;2022-11-11T06:58:07;56655.66;;;-144.48;93.99
68758;BME280;55747;51.998;4.466;2022-11-11T07:00:34;56663.91;;;-144.48;94.10
68758;BME280;55747;51.998;4.466;2022-11-11T07:03:00;56692.88;;;-144.48;94.04
68758;BME280;55747;51.998;4.466;2022-11-11T07:05:25;56663.91;;;-144.48;94.06
68758;BME280;55747;51.998;4.466;2022-11-11T07:07:51;56661.84;;;-144.48;93.99
68758;BME280;55747;51.998;4.466;2022-11-11T07:10:16;56686.66;;;-144.48;94.13
68758;BME280;55747;51.998;4.466;2022-11-11T07:12:42;56680.47;;;-144.48;94.15
68758;BME280;55747;51.998;4.466;2022-11-11T07:15:10;56703.19;;;-144.48;94.12
68758;BME280;55747;51.998;4.466;2022-11-11T07:17:36;56692.88;;;-144.48;94.15
68758;BME280;55747;51.998;4.466;2022-11-11T07:20:01;56709.41;;;-144.48;94.08
68758;BME280;55747;51.998;4.466;2022-11-11T07:22:27;56699.06;;;-144.48;94.11
68758;BME280;55747;51.998;4.466;2022-11-11T07:24:52;56647.38;;;-144.48;94.15
68758;BME280;55747;51.998;4.466;2022-11-11T07:27:17;56653.59;;;-144.48;94.18
68758;BME280;55747;51.998;4.466;2022-11-11T07:29:42;56690.81;;;-144.48;94.15
68758;BME280;55747;51.998;4.466;2022-11-11T07:32:08;56676.31;;;-144.48;93.96
68758;BME280;55747;51.998;4.466;2022-11-11T07:34:33;56688.72;;;-144.48;94.00
68758;BME280;55747;51.998;4.466;2022-11-11T07:36:59;56713.53;;;-144.48;94.02
68758;BME280;55747;51.998;4.466;2022-11-11T07:39:24;56728.00;;;-144.48;93.97
68758;BME280;55747;51.998;4.466;2022-11-11T07:41:49;56659.78;;;-144.48;93.88
68758;BME280;55747;51.998;4.466;2022-11-11T07:44:16;56684.59;;;-144.48;93.83
68758;BME280;55747;51.998;4.466;2022-11-11T07:46:42;56678.41;;;-144.48;93.62
68758;BME280;55747;51.998;4.466;2022-11-11T07:49:07;56686.66;;;-144.48;93.58
68758;BME280;55747;51.998;4.466;2022-11-11T07:51:32;56697.00;;;-144.48;93.49
68758;BME280;55747;51.998;4.466;2022-11-11T07:53:58;56670.13;;;-144.48;93.59
68758;BME280;55747;51.998;4.466;2022-11-11T07:56:23;56717.69;;;-144.48;93.59
68758;BME280;55747;51.998;4.466;2022-11-11T07:58:48;56732.16;;;-144.48;93.44
68758;BME280;55747;51.998;4.466;2022-11-11T08:01:14;56690.81;;;-144.48;93.18
68758;BME280;55747;51.998;4.466;2022-11-11T08:03:39;56711.47;;;-144.48;92.94
68758;BME280;55747;51.998;4.466;2022-11-11T08:06:15;56699.06;;;-144.48;93.11
68758;BME280;55747;51.998;4.466;2022-11-11T08:08:41;56663.91;;;-144.48;93.00
68758;BME280;55747;51.998;4.466;2022-11-11T08:11:06;56701.13;;;-144.48;92.67
68758;BME280;55747;51.998;4.466;2022-11-11T08:13:32;56674.25;;;-144.48;92.79
68758;BME280;55747;51.998;4.466;2022-11-11T08:16:08;56666.00;;;-144.48;92.44
68758;BME280;55747;51.998;4.466;2022-11-11T08:18:34;56699.06;;;-144.48;92.07
68758;BME280;55747;51.998;4.466;2022-11-11T08:21:00;56705.28;;;-144.48;91.70
68758;BME280;55747;51.998;4.466;2022-11-11T08:23:25;56670.13;;;-144.48;91.64
68758;BME280;55747;51.998;4.466;2022-11-11T08:26:01;56661.84;;;-144.48;91.11
68758;BME280;55747;51.998;4.466;2022-11-11T08:28:28;56661.84;;;-144.48;90.99
68758;BME280;55747;51.998;4.466;2022-11-11T08:30:54;56663.91;;;-144.48;91.00
68758;BME280;55747;51.998;4.466;2022-11-11T08:33:21;56707.34;;;-144.48;91.23
68758;BME280;55747;51.998;4.466;2022-11-11T08:35:47;56674.25;;;-144.48;91.07
68758;BME280;55747;51.998;4.466;2022-11-11T08:38:12;56674.25;;;-144.48;90.92
68758;BME280;55747;51.998;4.466;2022-11-11T08:40:38;56688.72;;;-144.48;90.77
68758;BME280;55747;51.998;4.466;2022-11-11T08:43:04;56661.84;;;-144.48;90.94
68758;BME280;55747;51.998;4.466;2022-11-11T08:45:29;56682.53;;;-144.48;90.75
68758;BME280;55747;51.998;4.466;2022-11-11T08:47:54;56682.53;;;-144.48;90.46
68758;BME280;55747;51.998;4.466;2022-11-11T08:50:20;56694.94;;;-144.48;90.86
68758;BME280;55747;51.998;4.466;2022-11-11T08:52:49;56682.53;;;-144.48;91.02
68758;BME280;55747;51.998;4.466;2022-11-11T08:55:15;56694.94;;;-144.48;90.54
68758;BME280;55747;51.998;4.466;2022-11-11T08:57:41;56713.53;;;-144.48;90.62
68758;BME280;55747;51.998;4.466;2022-11-11T09:00:07;56672.19;;;-144.48;89.67
68758;BME280;55747;51.998;4.466;2022-11-11T09:02:33;56622.56;;;-144.48;89.22
68758;BME280;55747;51.998;4.466;2022-11-11T09:04:58;56684.59;;;-144.48;88.95
68758;BME280;55747;51.998;4.466;2022-11-11T09:07:23;56692.88;;;-144.48;87.79
68758;BME280;55747;51.998;4.466;2022-11-11T09:09:49;56682.53;;;-144.48;87.13
68758;BME280;55747;51.998;4.466;2022-11-11T09:12:14;56657.72;;;-144.48;87.13
68758;BME280;55747;51.998;4.466;2022-11-11T09:14:39;56699.06;;;-144.48;87.82
68758;BME280;55747;51.998;4.466;2022-11-11T09:17:05;56674.25;;;-144.48;86.90
68758;BME280;55747;51.998;4.466;2022-11-11T09:19:31;56699.06;;;-144.48;87.05
68758;BME280;55747;51.998;4.466;2022-11-11T09:21:56;56666.00;;;-144.48;87.26
68758;BME280;55747;51.998;4.466;2022-11-11T09:24:21;56692.88;;;-144.48;87.13
68758;BME280;55747;51.998;4.466;2022-11-11T09:26:47;56653.59;;;-144.48;85.92
68758;BME280;55747;51.998;4.466;2022-11-11T09:29:13;56678.41;;;-144.48;85.49
68758;BME280;55747;51.998;4.466;2022-11-11T09:31:39;56657.72;;;-144.48;85.32
68758;BME280;55747;51.998;4.466;2022-11-11T09:34:04;56674.25;;;-144.48;85.02
68758;BME280;55747;51.998;4.466;2022-11-11T09:36:31;56721.81;;;-144.48;84.43
68758;BME280;55747;51.998;4.466;2022-11-11T09:38:56;56680.47;;;-144.48;85.47
68758;BME280;55747;51.998;4.466;2022-11-11T09:44:28;56639.13;;;-144.48;86.66
68758;BME280;55747;51.998;4.466;2022-11-11T09:47:38;56678.41;;;-144.48;86.84
68758;BME280;55747;51.998;4.466;2022-11-11T09:52:32;56688.72;;;-144.48;87.05
68758;BME280;55747;51.998;4.466;2022-11-11T09:57:48;56672.19;;;-144.48;88.06
68758;BME280;55747;51.998;4.466;2022-11-11T10:00:21;56649.44;;;-144.48;87.30
68758;BME280;55747;51.998;4.466;2022-11-11T10:02:52;56721.81;;;-144.48;86.98
68758;BME280;55747;51.998;4.466;2022-11-11T10:05:25;56676.31;;;-144.48;87.20
68758;BME280;55747;51.998;4.466;2022-11-11T10:12:53;56694.94;;;-144.48;86.93
68758;BME280;55747;51.998;4.466;2022-11-11T10:15:19;56672.19;;;-144.48;87.65
68758;BME280;55747;51.998;4.466;2022-11-11T10:17:52;56657.72;;;-144.48;87.31
68758;BME280;55747;51.998;4.466;2022-11-11T10:20:25;56659.78;;;-144.48;87.50
68758;BME280;55747;51.998;4.466;2022-11-11T10:23:04;56661.84;;;-144.48;86.95
68758;BME280;55747;51.998;4.466;2022-11-11T10:25:32;56721.81;;;-144.48;86.76
68758;BME280;55747;51.998;4.466;2022-11-11T10:28:00;56686.66;;;-144.48;86.53
68758;BME280;55747;51.998;4.466;2022-11-11T10:30:28;56694.94;;;-144.48;86.77
68758;BME280;55747;51.998;4.466;2022-11-11T10:33:03;56703.19;;;-144.48;85.95
68758;BME280;55747;51.998;4.466;2022-11-11T10:35:31;56668.06;;;-144.48;85.12
68758;BME280;55747;51.998;4.466;2022-11-11T10:40:40;56680.47;;;-144.48;85.41
68758;BME280;55747;51.998;4.466;2022-11-11T10:43:18;56692.88;;;-144.48;84.89
68758;BME280;55747;51.998;4.466;2022-11-11T10:51:06;56649.44;;;-144.48;85.43
68758;BME280;55747;51.998;4.466;2022-11-11T11:01:19;56680.47;;;-144.48;83.27
68758;BME280;55747;51.998;4.466;2022-11-11T11:03:49;56676.31;;;-144.48;83.44
68758;BME280;55747;51.998;4.466;2022-11-11T11:06:23;56668.06;;;-144.48;83.46
68758;BME280;55747;51.998;4.466;2022-11-11T11:08:54;56663.91;;;-144.48;83.39
68758;BME280;55747;51.998;4.466;2022-11-11T11:11:34;56674.25;;;-144.48;83.82
68758;BME280;55747;51.998;4.466;2022-11-11T11:14:07;56690.81;;;-144.48;83.62
68758;BME280;55747;51.998;4.466;2022-11-11T11:16:41;56676.31;;;-144.48;82.15
68758;BME280;55747;51.998;4.466;2022-11-11T11:19:21;56663.91;;;-144.48;82.54
68758;BME280;55747;51.998;4.466;2022-11-11T11:21:55;56684.59;;;-144.48;81.01
68758;BME280;55747;51.998;4.466;2022-11-11T11:24:24;56645.31;;;-144.48;79.67
68758;BME280;55747;51.998;4.466;2022-11-11T11:26:53;56682.53;;;-144.48;77.68
68758;BME280;55747;51.998;4.466;2022-11-11T11:32:20;56678.41;;;-144.48;80.90
68758;BME280;55747;51.998;4.466;2022-11-11T11:34:54;56676.31;;;-144.48;81.77
68758;BME280;55747;51.998;4.466;2022-11-11T11:37:23;56682.53;;;-144.48;81.83
68758;BME280;55747;51.998;4.466;2022-11-11T11:40:04;56674.25;;;-144.48;79.72
68758;BME280;55747;51.998;4.466;2022-11-11T11:42:32;56670.13;;;-144.48;79.60
68758;BME280;55747;51.998;4.466;2022-11-11T11:45:25;56670.13;;;-144.48;79.10
68758;BME280;55747;51.998;4.466;2022-11-11T11:53:17;56666.00;;;-144.48;77.79
68758;BME280;55747;51.998;4.466;2022-11-11T11:55:56;56670.13;;;-144.48;77.06
68758;BME280;55747;51.998;4.466;2022-11-11T11:58:29;56645.31;;;-144.48;74.20
68758;BME280;55747;51.998;4.466;2022-11-11T12:01:04;56649.44;;;-144.48;74.30
68758;BME280;55747;51.998;4.466;2022-11-11T12:08:56;56620.50;;;-144.48;72.68
68758;BME280;55747;51.998;4.466;2022-11-11T12:11:45;56639.13;;;-144.48;71.20
68758;BME280;55747;51.998;4.466;2022-11-11T12:14:30;56649.44;;;-144.48;70.17
68758;BME280;55747;51.998;4.466;2022-11-11T12:17:18;56674.25;;;-144.48;69.44
68758;BME280;55747;51.998;4.466;2022-11-11T12:22:56;56674.25;;;-144.48;70.39
68758;BME280;55747;51.998;4.466;2022-11-11T12:33:59;56637.03;;;-144.48;69.12
68758;BME280;55747;51.998;4.466;2022-11-11T12:36:35;56620.50;;;-144.48;68.56
68758;BME280;55747;51.998;4.466;2022-11-11T12:45:21;56620.50;;;-144.48;66.00
68758;BME280;55747;51.998;4.466;2022-11-11T12:48:00;56641.19;;;-144.48;67.94
68758;BME280;55747;51.998;4.466;2022-11-11T12:53:36;56630.84;;;-144.48;67.86
68758;BME280;55747;51.998;4.466;2022-11-11T12:56:23;56628.78;;;-144.48;68.07
68758;BME280;55747;51.998;4.466;2022-11-11T12:59:08;56606.03;;;-144.48;68.53
68758;BME280;55747;51.998;4.466;2022-11-11T13:15:20;56601.91;;;-144.48;67.23
68758;BME280;55747;51.998;4.466;2022-11-11T13:17:46;56587.41;;;-144.48;65.13
68758;BME280;55747;51.998;4.466;2022-11-11T13:20:20;56595.69;;;-144.48;63.25
68758;BME280;55747;51.998;4.466;2022-11-11T13:22:48;56624.63;;;-144.48;65.29
68758;BME280;55747;51.998;4.466;2022-11-11T13:25:21;56628.78;;;-144.48;66.33
68758;BME280;55747;51.998;4.466;2022-11-11T13:27:50;56637.03;;;-144.48;67.87
68758;BME280;55747;51.998;4.466;2022-11-11T13:30:35;56645.31;;;-144.48;64.92
68758;BME280;55747;51.998;4.466;2022-11-11T13:33:13;56622.56;;;-144.48;65.09
68758;BME280;55747;51.998;4.466;2022-11-11T13:35:44;56649.44;;;-144.48;67.07
68758;BME280;55747;51.998;4.466;2022-11-11T13:38:22;56620.50;;;-144.48;67.63
68758;BME280;55747;51.998;4.466;2022-11-11T13:40:51;56626.72;;;-144.48;68.86
68758;BME280;55747;51.998;4.466;2022-11-11T13:43:24;56616.38;;;-144.48;68.23
68758;BME280;55747;51.998;4.466;2022-11-11T13:45:53;56618.44;;;-144.48;67.45
68758;BME280;55747;51.998;4.466;2022-11-11T13:48:24;56626.72;;;-144.48;69.14
68758;BME280;55747;51.998;4.466;2022-11-11T13:50:50;56612.22;;;-144.48;70.60
68758;BME280;55747;51.998;4.466;2022-11-11T13:53:31;56655.66;;;-144.48;69.52
68758;BME280;55747;51.998;4.466;2022-11-11T13:56:00;56641.19;;;-144.48;70.78
68758;BME280;55747;51.998;4.466;2022-11-11T13:58:33;56589.50;;;-144.48;68.61
68758;BME280;55747;51.998;4.466;2022-11-11T14:01:02;56637.03;;;-144.48;68.99
68758;BME280;55747;51.998;4.466;2022-11-11T14:03:36;56634.97;;;-144.48;70.67
68758;BME280;55747;51.998;4.466;2022-11-11T14:07:08;56603.97;;;-144.48;70.12
68758;BME280;55747;51.998;4.466;2022-11-11T14:09:52;56653.59;;;-144.48;72.52
68758;BME280;55747;51.998;4.466;2022-11-11T14:12:18;56630.84;;;-144.48;72.71
68758;BME280;55747;51.998;4.466;2022-11-11T14:14:51;56639.13;;;-144.48;72.55
68758;BME280;55747;51.998;4.466;2022-11-11T14:17:19;56622.56;;;-144.48;72.61
68758;BME280;55747;51.998;4.466;2022-11-11T14:19:45;56639.13;;;-144.48;72.50
68758;BME280;55747;51.998;4.466;2022-11-11T14:22:27;56647.38;;;-144.48;72.59
68758;BME280;55747;51.998;4.466;2022-11-11T14:24:53;56647.38;;;-144.48;72.49